Time;durP1;ratioP1;P1;durP2;ratioP2;P2;SDS_P1;SDS_P2;PMS_P1;PMS_P2;Temp;Humidity;BMP_temperature;BMP_pressure;BME280_temperature;BME280_humidity;BME280_pressure;Samples;Min_cycle;Max_cycle;Signal;HPM_P1;HPM_P2
2023/04/13 00:00:45;;;;;;;0.55;0.45;;;8.80;99.90;;;;;;4968825;28;20037;-68
2023/04/13 00:03:11;;;;;;;0.32;0.15;;;8.60;99.90;;;;;;4967190;28;20020;-68
2023/04/13 00:05:40;;;;;;;0.45;0.45;;;8.50;99.90;;;;;;4968164;28;20023;-68
2023/04/13 00:08:07;;;;;;;2.25;0.65;;;8.30;99.90;;;;;;4967475;28;20031;-69
2023/04/13 00:10:35;;;;;;;0.73;0.28;;;8.20;99.90;;;;;;4970582;28;20106;-68
2023/04/13 00:13:05;;;;;;;1.55;0.88;;;8.20;99.90;;;;;;4968679;28;20049;-68
2023/04/13 00:15:33;;;;;;;0.55;0.50;;;8.10;99.90;;;;;;4979498;28;20125;-68
2023/04/13 00:18:00;;;;;;;1.67;0.65;;;8.10;99.90;;;;;;4967776;28;20026;-69
2023/04/13 00:20:26;;;;;;;1.48;0.50;;;8.00;99.90;;;;;;4970973;28;20022;-68
2023/04/13 00:22:52;;;;;;;2.28;1.20;;;7.80;99.90;;;;;;4971942;28;20111;-68
2023/04/13 00:25:18;;;;;;;4.63;1.08;;;7.80;99.90;;;;;;4971221;28;20105;-69
2023/04/13 00:27:44;;;;;;;3.83;1.30;;;7.70;99.90;;;;;;4970511;28;20086;-68
2023/04/13 00:30:14;;;;;;;2.88;0.90;;;7.70;99.90;;;;;;4970806;28;20486;-68
2023/04/13 00:32:42;;;;;;;0.57;0.38;;;7.60;99.90;;;;;;4971859;28;20561;-68
2023/04/13 00:35:10;;;;;;;2.90;1.30;;;7.60;99.90;;;;;;4956097;28;20042;-68
2023/04/13 00:37:37;;;;;;;6.20;1.63;;;7.50;99.90;;;;;;4971687;28;20072;-69
2023/04/13 00:40:08;;;;;;;2.05;0.98;;;7.40;99.90;;;;;;4969409;28;20493;-68
2023/04/13 00:42:35;;;;;;;2.55;0.95;;;7.40;99.90;;;;;;4971756;28;20109;-68
2023/04/13 00:45:01;;;;;;;2.95;1.75;;;7.40;99.90;;;;;;4971023;28;20578;-68
2023/04/13 00:47:31;;;;;;;2.08;0.55;;;7.50;99.90;;;;;;4970614;28;20085;-68
2023/04/13 00:50:00;;;;;;;1.90;0.52;;;7.50;99.90;;;;;;4974583;28;22257;-68
2023/04/13 00:52:27;;;;;;;1.15;0.45;;;7.40;99.90;;;;;;4974371;28;20033;-68
2023/04/13 00:54:56;;;;;;;3.67;0.45;;;7.30;99.90;;;;;;4973637;28;20035;-69
2023/04/13 00:57:24;;;;;;;1.75;1.23;;;7.30;99.90;;;;;;4974114;28;20110;-68
2023/04/13 00:59:51;;;;;;;0.32;0.30;;;7.30;99.90;;;;;;4973377;28;20038;-68
2023/04/13 01:02:23;;;;;;;1.05;0.68;;;7.20;99.90;;;;;;4975105;28;20382;-68
2023/04/13 01:04:49;;;;;;;0.47;0.47;;;7.20;99.90;;;;;;4971653;28;20391;-68
2023/04/13 01:07:49;;;;;;;1.65;0.57;;;7.20;99.90;;;;;;4966809;28;20038;-68
2023/04/13 01:10:34;;;;;;;0.73;0.45;;;7.20;99.90;;;;;;4983032;28;20041;-68
2023/04/13 01:13:29;;;;;;;1.58;0.38;;;7.20;99.90;;;;;;4973880;28;20058;-68
2023/04/13 01:16:04;;;;;;;3.28;0.60;;;7.10;99.90;;;;;;4951286;28;20027;-67
2023/04/13 01:18:33;;;;;;;0.65;0.30;;;7.10;99.90;;;;;;4973792;28;20023;-67
2023/04/13 01:21:01;;;;;;;1.55;0.57;;;7.10;99.90;;;;;;4972282;28;20026;-68
2023/04/13 01:23:56;;;;;;;0.82;0.38;;;7.10;99.90;;;;;;4957782;28;20027;-68
2023/04/13 01:26:21;;;;;;;1.27;0.43;;;7.10;99.90;;;;;;4965452;28;20046;-68
2023/04/13 01:28:50;;;;;;;0.98;0.30;;;7.10;99.90;;;;;;4974740;28;20093;-68
2023/04/13 01:31:16;;;;;;;0.43;0.32;;;7.10;99.90;;;;;;4973777;28;20022;-68
2023/04/13 01:33:44;;;;;;;2.40;0.28;;;7.00;99.90;;;;;;4973341;28;20031;-69
2023/04/13 01:36:11;;;;;;;0.30;0.30;;;7.00;99.90;;;;;;4972438;28;20118;-68
2023/04/13 01:38:37;;;;;;;1.65;0.30;;;7.00;99.90;;;;;;4974580;28;20391;-68
2023/04/13 01:41:03;;;;;;;1.05;0.30;;;7.00;99.90;;;;;;4973715;28;20023;-68
2023/04/13 01:43:29;;;;;;;0.73;0.30;;;6.90;99.90;;;;;;4973325;28;20038;-68
2023/04/13 01:46:12;;;;;;;2.13;0.73;;;7.00;99.90;;;;;;4972386;28;20043;-68
2023/04/13 01:48:42;;;;;;;6.13;0.52;;;7.00;99.90;;;;;;4973209;28;20035;-68
2023/04/13 01:51:18;;;;;;;2.55;0.40;;;7.10;99.90;;;;;;4973592;28;20391;-68
2023/04/13 01:53:52;;;;;;;0.65;0.38;;;7.20;99.90;;;;;;4973001;28;20626;-68
2023/04/13 01:56:21;;;;;;;1.65;0.30;;;7.20;99.90;;;;;;4973585;28;20030;-68
2023/04/13 01:58:52;;;;;;;0.30;0.20;;;7.20;99.90;;;;;;4972490;28;20077;-68
2023/04/13 02:01:18;;;;;;;0.20;0.20;;;7.20;99.90;;;;;;4972417;28;20507;-68
2023/04/13 02:03:44;;;;;;;0.98;0.60;;;7.20;99.90;;;;;;4974239;28;20041;-68
2023/04/13 02:06:10;;;;;;;0.98;0.38;;;7.20;99.90;;;;;;4964003;28;20039;-68
2023/04/13 02:08:36;;;;;;;7.38;0.32;;;7.30;99.90;;;;;;4968687;28;20022;-68
2023/04/13 02:11:03;;;;;;;0.43;0.20;;;7.40;99.90;;;;;;4972945;28;20049;-69
2023/04/13 02:13:29;;;;;;;1.10;0.22;;;7.50;99.90;;;;;;4972856;28;20023;-68
2023/04/13 02:15:57;;;;;;;0.77;0.55;;;7.50;99.90;;;;;;4973260;28;20114;-68
2023/04/13 02:18:23;;;;;;;0.50;0.38;;;7.50;99.90;;;;;;4973877;28;20023;-68
2023/04/13 02:21:07;;;;;;;0.15;0.10;;;7.60;99.90;;;;;;4971574;28;20038;-68
2023/04/13 02:23:37;;;;;;;0.20;0.20;;;7.70;99.90;;;;;;4972403;28;20094;-68
2023/04/13 02:26:05;;;;;;;0.93;0.30;;;7.70;99.90;;;;;;4971696;28;20398;-68
2023/04/13 02:28:31;;;;;;;0.30;0.28;;;7.70;99.90;;;;;;4973858;28;20090;-68
2023/04/13 02:31:01;;;;;;;2.95;0.40;;;7.80;99.90;;;;;;4972892;28;20046;-68
2023/04/13 02:33:30;;;;;;;1.02;0.28;;;7.80;99.90;;;;;;4973714;28;20029;-68
2023/04/13 02:36:03;;;;;;;0.10;0.10;;;7.80;99.90;;;;;;4972630;28;20479;-68
2023/04/13 02:38:30;;;;;;;0.30;0.30;;;7.90;99.90;;;;;;4972509;28;20077;-68
2023/04/13 02:40:58;;;;;;;4.80;0.20;;;7.90;99.90;;;;;;4971011;28;20105;-68
2023/04/13 02:43:28;;;;;;;0.68;0.20;;;7.90;99.90;;;;;;4982781;28;20566;-68
2023/04/13 02:45:55;;;;;;;0.55;0.38;;;7.90;99.90;;;;;;4972788;28;20038;-68
2023/04/13 02:48:20;;;;;;;1.65;0.17;;;7.90;99.90;;;;;;4972308;28;20034;-68
2023/04/13 02:50:47;;;;;;;0.57;0.08;;;7.90;99.90;;;;;;4970684;28;20517;-68
2023/04/13 02:53:15;;;;;;;1.02;1.00;;;7.90;99.90;;;;;;4973371;28;20042;-68
2023/04/13 02:55:42;;;;;;;0.75;0.35;;;8.00;99.90;;;;;;4983272;23;20065;-69
2023/04/13 02:58:09;;;;;;;3.10;1.08;;;8.00;99.90;;;;;;4965994;28;20042;-67
2023/04/13 03:00:34;;;;;;;0.73;0.38;;;8.00;99.90;;;;;;4970923;28;20089;-67
2023/04/13 03:03:02;;;;;;;0.68;0.50;;;8.00;99.90;;;;;;4969344;28;20031;-69
2023/04/13 03:05:30;;;;;;;0.45;0.13;;;8.00;99.90;;;;;;4979280;28;20034;-68
2023/04/13 03:07:57;;;;;;;1.88;0.73;;;8.00;99.90;;;;;;4971065;28;20094;-67
2023/04/13 03:10:23;;;;;;;4.38;0.60;;;8.00;99.90;;;;;;4972071;28;20473;-68
2023/04/13 03:12:49;;;;;;;0.20;0.15;;;8.00;99.90;;;;;;4962994;28;20503;-68
2023/04/13 03:15:17;;;;;;;2.55;0.88;;;8.00;99.90;;;;;;4972410;28;20027;-67
2023/04/13 03:17:43;;;;;;;3.33;0.68;;;8.00;99.90;;;;;;4965518;28;20755;-68
2023/04/13 03:20:11;;;;;;;0.35;0.35;;;8.00;99.90;;;;;;4972256;28;20053;-68
2023/04/13 03:22:38;;;;;;;0.63;0.30;;;8.00;99.90;;;;;;4965836;28;20391;-68
2023/04/13 03:25:06;;;;;;;2.30;0.50;;;8.00;99.90;;;;;;4986732;28;20080;-68
2023/04/13 03:27:31;;;;;;;1.92;1.02;;;8.00;99.90;;;;;;4970018;28;20026;-68
2023/04/13 03:29:57;;;;;;;0.22;0.22;;;8.00;99.90;;;;;;4972085;28;20085;-68
2023/04/13 03:32:23;;;;;;;1.88;0.45;;;8.10;99.90;;;;;;4967799;28;20067;-69
2023/04/13 03:34:49;;;;;;;1.42;1.08;;;8.10;99.90;;;;;;4969496;28;20031;-69
2023/04/13 03:37:14;;;;;;;1.13;0.30;;;8.10;99.90;;;;;;4968868;28;20109;-68
2023/04/13 03:39:41;;;;;;;2.30;0.28;;;8.10;99.90;;;;;;4968590;28;20027;-68
2023/04/13 03:42:06;;;;;;;1.98;0.80;;;8.10;99.90;;;;;;4969821;28;20039;-67
2023/04/13 03:44:32;;;;;;;3.42;1.10;;;8.10;99.90;;;;;;4967832;28;20038;-67
2023/04/13 03:46:58;;;;;;;1.27;0.77;;;8.10;99.90;;;;;;4969458;28;20042;-68
2023/04/13 03:49:24;;;;;;;1.48;0.30;;;8.10;99.90;;;;;;4976769;28;20027;-67
2023/04/13 03:51:50;;;;;;;3.10;1.17;;;8.20;99.90;;;;;;4985471;28;20503;-67
2023/04/13 03:54:15;;;;;;;1.95;0.73;;;8.10;99.90;;;;;;4964726;28;20367;-67
2023/04/13 03:56:41;;;;;;;4.15;1.27;;;8.10;99.90;;;;;;4971216;28;20054;-67
2023/04/13 03:59:07;;;;;;;2.33;1.35;;;8.10;99.90;;;;;;4962551;28;20035;-67
2023/04/13 04:01:33;;;;;;;7.07;1.00;;;8.20;99.90;;;;;;4954108;28;20623;-68
2023/04/13 04:03:59;;;;;;;1.92;0.82;;;8.20;99.90;;;;;;4964106;28;20038;-67
2023/04/13 04:06:26;;;;;;;9.20;1.38;;;8.20;99.90;;;;;;4970890;28;20496;-68
2023/04/13 04:08:52;;;;;;;2.40;0.68;;;8.20;99.90;;;;;;4964018;28;20074;-68
2023/04/13 04:11:18;;;;;;;4.45;0.35;;;8.20;99.90;;;;;;4969859;28;20062;-67
2023/04/13 04:13:44;;;;;;;1.02;0.30;;;8.30;99.90;;;;;;4962280;28;20045;-68
2023/04/13 04:16:12;;;;;;;1.58;0.70;;;8.20;99.90;;;;;;4970614;28;20058;-68
2023/04/13 04:18:38;;;;;;;0.32;0.30;;;8.20;99.90;;;;;;4962386;28;20069;-67
2023/04/13 04:21:05;;;;;;;1.45;0.60;;;8.20;99.90;;;;;;4969191;28;20089;-68
2023/04/13 04:23:33;;;;;;;5.72;0.73;;;8.20;99.90;;;;;;4963325;28;20479;-69
2023/04/13 04:26:01;;;;;;;0.52;0.28;;;8.30;99.90;;;;;;4973714;28;20502;-68
2023/04/13 04:28:37;;;;;;;1.85;0.70;;;8.20;99.90;;;;;;4963822;28;20042;-69
2023/04/13 04:31:09;;;;;;;0.20;0.10;;;8.10;99.90;;;;;;4969972;28;20053;-69
2023/04/13 04:33:37;;;;;;;0.20;0.20;;;8.10;99.90;;;;;;4963932;28;20149;-68
2023/04/13 04:36:08;;;;;;;1.02;0.40;;;8.20;99.90;;;;;;4970827;28;20106;-68
2023/04/13 04:38:34;;;;;;;0.52;0.13;;;8.10;99.90;;;;;;4963897;28;20045;-68
2023/04/13 04:41:00;;;;;;;0.30;0.30;;;8.10;99.90;;;;;;4970766;28;20103;-68
2023/04/13 04:43:29;;;;;;;0.70;0.43;;;8.10;99.90;;;;;;4964014;28;20551;-69
2023/04/13 04:45:58;;;;;;;1.73;0.80;;;8.10;99.90;;;;;;4970555;28;20121;-68
2023/04/13 04:48:25;;;;;;;0.82;0.57;;;8.10;99.90;;;;;;4961979;28;20068;-68
2023/04/13 04:50:53;;;;;;;2.50;0.75;;;8.20;99.90;;;;;;4967026;28;20018;-69
2023/04/13 04:53:19;;;;;;;1.00;0.38;;;8.00;99.90;;;;;;4968506;28;20453;-69
2023/04/13 04:55:45;;;;;;;0.28;0.28;;;8.00;99.90;;;;;;4970183;28;20662;-69
2023/04/13 04:58:11;;;;;;;0.55;0.20;;;8.00;99.90;;;;;;4968852;28;20035;-70
2023/04/13 05:00:37;;;;;;;1.75;0.52;;;8.00;99.90;;;;;;4964985;28;20034;-70
2023/04/13 05:03:03;;;;;;;4.22;1.13;;;8.10;99.90;;;;;;4969363;28;20034;-70
2023/04/13 05:05:29;;;;;;;0.98;0.40;;;8.00;99.90;;;;;;4970716;28;20023;-70
2023/04/13 05:07:55;;;;;;;0.85;0.82;;;8.00;99.90;;;;;;4962516;28;20443;-70
2023/04/13 05:10:23;;;;;;;2.92;0.32;;;8.00;99.90;;;;;;4968176;28;20387;-70
2023/04/13 05:12:49;;;;;;;1.38;0.40;;;8.10;99.90;;;;;;4960209;28;20039;-70
2023/04/13 05:15:15;;;;;;;1.85;0.32;;;8.10;99.90;;;;;;4976260;28;20133;-71
2023/04/13 05:17:45;;;;;;;0.82;0.17;;;8.10;99.90;;;;;;4961498;28;20027;-69
2023/04/13 05:20:12;;;;;;;2.35;0.60;;;8.10;99.90;;;;;;4962703;28;20471;-70
2023/04/13 05:22:38;;;;;;;1.38;0.47;;;8.20;99.90;;;;;;4963687;28;20055;-70
2023/04/13 05:25:05;;;;;;;6.10;0.57;;;8.20;99.90;;;;;;4969986;28;20071;-70
2023/04/13 05:27:31;;;;;;;1.05;0.82;;;8.10;99.90;;;;;;4964265;28;20027;-71
2023/04/13 05:29:57;;;;;;;0.22;0.22;;;8.20;99.90;;;;;;4968476;28;20089;-71
2023/04/13 05:32:23;;;;;;;6.25;0.57;;;8.00;99.90;;;;;;4947796;29;20072;-71
2023/04/13 05:34:50;;;;;;;0.30;0.17;;;8.10;99.90;;;;;;4970307;28;20035;-71
2023/04/13 05:37:16;;;;;;;2.30;1.42;;;8.20;99.90;;;;;;4969866;28;20094;-71
2023/04/13 05:39:42;;;;;;;0.35;0.20;;;8.20;99.90;;;;;;4970419;28;20027;-71
2023/04/13 05:42:08;;;;;;;6.43;0.45;;;8.10;99.90;;;;;;4970399;28;20027;-69
2023/04/13 05:44:33;;;;;;;0.47;0.20;;;8.20;99.90;;;;;;4968734;28;20123;-70
2023/04/13 05:47:01;;;;;;;3.20;0.65;;;8.20;99.90;;;;;;4970008;28;20042;-70
2023/04/13 05:49:27;;;;;;;0.30;0.30;;;8.30;99.90;;;;;;4981852;28;20662;-70
2023/04/13 05:51:53;;;;;;;1.27;0.57;;;8.20;99.90;;;;;;4972387;28;20046;-70
2023/04/13 05:54:19;;;;;;;0.65;0.50;;;8.30;99.90;;;;;;4967127;28;20485;-69
2023/04/13 05:56:46;;;;;;;1.33;0.57;;;8.30;99.90;;;;;;4970611;28;20053;-69
2023/04/13 05:59:13;;;;;;;0.47;0.30;;;8.30;99.90;;;;;;4965645;28;20085;-69
2023/04/13 06:01:38;;;;;;;1.77;0.85;;;8.30;99.90;;;;;;4975110;28;20027;-69
2023/04/13 06:04:04;;;;;;;3.80;0.85;;;8.20;99.90;;;;;;4965879;28;20026;-70
2023/04/13 06:06:31;;;;;;;3.40;0.57;;;8.30;99.90;;;;;;4972993;28;20510;-70
2023/04/13 06:08:57;;;;;;;2.05;0.63;;;8.30;99.90;;;;;;4965731;28;20110;-68
2023/04/13 06:11:25;;;;;;;1.08;0.45;;;8.30;99.90;;;;;;4971667;28;20173;-67
2023/04/13 06:13:51;;;;;;;7.68;0.82;;;8.30;99.90;;;;;;4965558;28;20054;-67
2023/04/13 06:16:17;;;;;;;2.05;0.55;;;8.30;99.90;;;;;;4972722;28;20114;-68
2023/04/13 06:18:43;;;;;;;2.08;0.63;;;8.30;99.90;;;;;;4965031;28;20023;-67
2023/04/13 06:21:09;;;;;;;3.60;1.83;;;8.40;99.90;;;;;;4971164;28;20046;-68
2023/04/13 06:23:36;;;;;;;0.20;0.20;;;8.50;99.90;;;;;;4958700;28;20027;-68
2023/04/13 06:26:02;;;;;;;4.15;2.08;;;8.50;99.90;;;;;;4972145;28;20506;-69
2023/04/13 06:28:30;;;;;;;0.55;0.38;;;8.40;99.90;;;;;;4967403;28;20055;-69
2023/04/13 06:30:56;;;;;;;3.70;0.35;;;8.50;99.90;;;;;;4978117;28;20031;-69
2023/04/13 06:33:22;;;;;;;11.88;0.90;;;8.40;99.90;;;;;;4965726;28;20027;-68
2023/04/13 06:35:50;;;;;;;3.90;1.75;;;8.50;99.90;;;;;;4970106;28;20058;-68
2023/04/13 06:38:17;;;;;;;7.03;1.20;;;8.50;99.90;;;;;;4971483;28;20031;-69
2023/04/13 06:40:43;;;;;;;1.60;0.40;;;8.60;99.90;;;;;;4970270;28;20033;-69
2023/04/13 06:43:09;;;;;;;2.22;0.40;;;8.50;99.90;;;;;;4977544;28;20030;-69
2023/04/13 06:45:34;;;;;;;1.38;0.47;;;8.40;99.90;;;;;;4973589;28;20113;-69
2023/04/13 06:48:00;;;;;;;4.00;0.90;;;8.30;99.90;;;;;;4969760;28;20115;-69
2023/04/13 06:50:26;;;;;;;5.55;1.95;;;8.40;99.90;;;;;;4970515;28;20105;-68
2023/04/13 06:52:52;;;;;;;2.83;1.63;;;8.40;99.90;;;;;;4979062;28;20526;-68
2023/04/13 06:55:18;;;;;;;1.15;0.43;;;8.30;99.90;;;;;;4977748;28;20030;-68
2023/04/13 06:57:44;;;;;;;4.55;1.10;;;8.40;99.90;;;;;;4969254;28;20030;-68
2023/04/13 07:00:13;;;;;;;10.98;0.88;;;8.30;99.90;;;;;;4971446;28;20082;-68
2023/04/13 07:02:40;;;;;;;4.32;0.57;;;8.40;99.90;;;;;;4973940;28;20102;-68
2023/04/13 07:05:07;;;;;;;1.85;0.73;;;8.40;99.90;;;;;;4969910;28;20035;-68
2023/04/13 07:07:33;;;;;;;3.05;0.63;;;8.50;99.90;;;;;;4954447;28;20074;-68
2023/04/13 07:09:59;;;;;;;2.40;1.42;;;8.50;99.90;;;;;;4967402;28;20422;-68
2023/04/13 07:12:25;;;;;;;4.32;0.88;;;8.40;99.90;;;;;;4964800;28;20045;-68
2023/04/13 07:14:50;;;;;;;0.40;0.35;;;8.40;99.90;;;;;;4971583;28;20045;-68
2023/04/13 07:17:17;;;;;;;6.80;0.68;;;8.40;99.90;;;;;;4972395;28;20073;-68
2023/04/13 07:19:46;;;;;;;10.40;1.02;;;8.30;99.90;;;;;;4987285;28;20034;-68
2023/04/13 07:22:13;;;;;;;5.22;1.30;;;8.20;99.90;;;;;;4970539;28;20030;-68
2023/04/13 07:24:38;;;;;;;14.82;1.85;;;8.20;99.90;;;;;;4969455;28;20089;-69
2023/04/13 07:27:04;;;;;;;9.90;0.95;;;8.20;99.90;;;;;;4970695;28;20493;-68
2023/04/13 07:29:30;;;;;;;16.48;1.48;;;8.20;99.90;;;;;;4969007;28;20039;-69
2023/04/13 07:32:02;;;;;;;6.20;1.23;;;8.20;99.90;;;;;;4971481;28;20042;-67
2023/04/13 07:34:28;;;;;;;11.43;1.00;;;8.10;99.90;;;;;;4970574;28;20113;-68
2023/04/13 07:36:54;;;;;;;7.03;0.47;;;8.10;99.90;;;;;;4971439;28;20030;-69
2023/04/13 07:39:20;;;;;;;4.93;1.00;;;8.10;99.90;;;;;;4969153;28;20045;-66
2023/04/13 07:41:46;;;;;;;3.17;1.90;;;8.20;99.90;;;;;;4969048;28;20027;-66
2023/04/13 07:44:13;;;;;;;3.40;1.15;;;8.10;99.90;;;;;;4976031;28;20040;-66
2023/04/13 07:46:39;;;;;;;1.85;1.02;;;8.10;99.90;;;;;;4973522;28;20037;-65
2023/04/13 07:49:05;;;;;;;1.00;0.30;;;8.20;99.90;;;;;;4970462;28;20034;-65
2023/04/13 07:51:33;;;;;;;3.55;1.05;;;8.10;99.90;;;;;;4971242;28;20069;-66
2023/04/13 07:53:59;;;;;;;3.85;0.57;;;8.20;99.90;;;;;;4976563;28;20038;-65
2023/04/13 07:56:26;;;;;;;6.15;1.08;;;8.10;99.90;;;;;;4973384;28;20069;-65
2023/04/13 07:58:52;;;;;;;11.77;0.80;;;8.00;99.90;;;;;;4970107;28;20119;-66
2023/04/13 08:01:18;;;;;;;5.03;0.90;;;8.00;99.90;;;;;;4969907;28;20050;-66
2023/04/13 08:03:44;;;;;;;6.82;0.75;;;8.20;99.90;;;;;;4970517;28;20039;-67
2023/04/13 08:06:10;;;;;;;2.78;0.73;;;8.20;99.90;;;;;;4972939;28;20027;-66
2023/04/13 08:08:36;;;;;;;3.55;0.52;;;8.30;99.90;;;;;;4970527;28;20031;-66
2023/04/13 08:11:02;;;;;;;0.70;0.55;;;8.40;99.90;;;;;;4984090;28;20045;-66
2023/04/13 08:13:29;;;;;;;5.93;1.38;;;8.40;99.90;;;;;;4962555;28;20054;-68
2023/04/13 08:15:56;;;;;;;5.13;0.43;;;8.40;99.90;;;;;;4965812;28;20039;-66
2023/04/13 08:18:30;;;;;;;2.38;0.88;;;8.50;99.90;;;;;;4959658;28;20029;-66
2023/04/13 08:21:00;;;;;;;2.65;0.68;;;8.50;99.90;;;;;;4963564;28;20550;-66
2023/04/13 08:23:26;;;;;;;6.25;0.98;;;8.60;99.90;;;;;;4960401;28;20078;-67
2023/04/13 08:25:52;;;;;;;0.30;0.10;;;8.60;99.90;;;;;;4964695;28;20031;-66
2023/04/13 08:28:18;;;;;;;8.52;1.20;;;8.50;99.90;;;;;;4962778;28;20382;-67
2023/04/13 08:30:44;;;;;;;5.88;0.88;;;8.50;99.90;;;;;;4967414;28;20062;-68
2023/04/13 08:33:10;;;;;;;1.05;0.93;;;8.50;99.90;;;;;;4952734;28;20026;-67
2023/04/13 08:35:38;;;;;;;6.55;1.25;;;8.60;99.90;;;;;;4962086;28;20122;-66
2023/04/13 08:38:06;;;;;;;5.57;0.88;;;8.60;99.90;;;;;;4960312;28;20545;-67
2023/04/13 08:40:37;;;;;;;4.20;1.23;;;8.80;99.90;;;;;;4962971;28;20066;-67
2023/04/13 08:43:04;;;;;;;3.38;0.73;;;9.20;99.90;;;;;;4962740;28;20493;-66
2023/04/13 08:45:31;;;;;;;3.35;1.15;;;9.40;99.90;;;;;;4965859;28;20035;-66
2023/04/13 08:47:57;;;;;;;3.95;0.98;;;9.10;99.90;;;;;;4970795;28;20027;-66
2023/04/13 08:50:27;;;;;;;1.98;0.50;;;9.10;99.90;;;;;;4963573;28;20154;-67
2023/04/13 08:52:54;;;;;;;2.10;0.47;;;9.20;99.90;;;;;;4964407;28;20054;-67
2023/04/13 08:55:20;;;;;;;9.32;1.00;;;9.30;99.90;;;;;;4964999;28;20042;-66
2023/04/13 08:57:48;;;;;;;11.15;1.08;;;9.40;99.90;;;;;;4960310;28;20404;-67
2023/04/13 09:00:17;;;;;;;2.28;0.93;;;9.60;99.90;;;;;;4961553;28;20030;-66
2023/04/13 09:02:47;;;;;;;6.32;0.88;;;9.70;99.90;;;;;;4965556;28;20030;-67
2023/04/13 09:05:14;;;;;;;3.50;0.77;;;9.50;99.90;;;;;;4952802;28;20026;-67
2023/04/13 09:07:45;;;;;;;9.65;1.00;;;9.50;99.90;;;;;;4984447;23;20050;-67
2023/04/13 09:10:11;;;;;;;6.30;0.80;;;9.30;99.90;;;;;;4970877;28;20031;-66
2023/04/13 09:12:39;;;;;;;3.83;0.63;;;9.30;99.90;;;;;;4967311;28;20034;-68
2023/04/13 09:15:06;;;;;;;10.95;1.27;;;9.50;99.90;;;;;;4985565;28;20042;-66
2023/04/13 09:17:32;;;;;;;5.82;1.35;;;9.50;99.90;;;;;;4978280;28;20118;-66
2023/04/13 09:20:21;;;;;;;1.35;0.55;;;9.60;99.90;;;;;;4973495;28;20030;-66
2023/04/13 09:22:49;;;;;;;2.13;0.95;;;9.50;99.90;;;;;;4968968;28;20042;-67
2023/04/13 09:25:29;;;;;;;1.42;0.60;;;9.50;99.90;;;;;;4992452;28;20053;-67
2023/04/13 09:27:55;;;;;;;0.32;0.30;;;9.60;99.90;;;;;;4976042;28;20555;-66
2023/04/13 09:30:26;;;;;;;3.45;0.45;;;9.60;99.90;;;;;;4973981;28;20034;-66
2023/04/13 09:33:10;;;;;;;1.27;0.40;;;9.50;99.90;;;;;;4961951;28;20031;-67
2023/04/13 09:35:37;;;;;;;0.35;0.20;;;9.60;99.90;;;;;;4959751;28;20034;-67
2023/04/13 09:38:06;;;;;;;0.25;0.13;;;9.70;99.90;;;;;;4974107;28;20105;-71
2023/04/13 09:40:32;;;;;;;1.02;0.20;;;9.60;99.90;;;;;;4969983;28;20030;-67
2023/04/13 09:43:04;;;;;;;3.25;0.30;;;9.80;99.90;;;;;;4974214;28;20027;-67
2023/04/13 09:45:44;;;;;;;6.13;0.65;;;9.90;99.90;;;;;;4971688;28;20050;-67
2023/04/13 09:48:21;;;;;;;1.40;0.28;;;9.80;99.90;;;;;;4953736;29;20035;-67
2023/04/13 09:51:01;;;;;;;1.15;0.43;;;9.80;99.90;;;;;;4971543;28;20058;-68
2023/04/13 09:53:37;;;;;;;0.10;0.10;;;10.00;99.90;;;;;;4954454;28;20067;-67
2023/04/13 09:56:04;;;;;;;1.45;0.22;;;10.00;99.90;;;;;;4972168;28;20063;-68
2023/04/13 09:58:30;;;;;;;0.55;0.32;;;9.80;99.90;;;;;;4972771;28;20022;-67
2023/04/13 10:00:59;;;;;;;5.50;0.20;;;10.00;99.90;;;;;;4970923;28;20041;-69
2023/04/13 10:03:26;;;;;;;8.82;1.20;;;10.30;99.90;;;;;;4973281;28;20588;-68
2023/04/13 10:05:52;;;;;;;4.30;0.30;;;10.40;99.90;;;;;;4986697;28;20042;-67
2023/04/13 10:08:18;;;;;;;1.35;0.82;;;10.40;99.90;;;;;;4972210;28;20039;-67
2023/04/13 10:10:43;;;;;;;1.33;0.28;;;10.50;99.90;;;;;;4971013;28;20039;-67
2023/04/13 10:13:22;;;;;;;1.13;0.20;;;10.40;99.90;;;;;;4971091;28;20066;-68
2023/04/13 10:16:42;;;;;;;3.00;0.60;;;10.30;99.90;;;;;;4970077;28;20399;-68
2023/04/13 10:19:15;;;;;;;0.80;0.32;;;10.60;99.90;;;;;;4970716;28;20387;-68
2023/04/13 10:21:47;;;;;;;0.88;0.73;;;10.60;99.90;;;;;;4978057;28;20019;-68
2023/04/13 10:24:14;;;;;;;4.03;0.32;;;10.70;99.90;;;;;;4983600;28;20041;-68
2023/04/13 10:26:42;;;;;;;0.70;0.20;;;10.50;99.90;;;;;;4972239;28;20038;-68
2023/04/13 10:29:10;;;;;;;2.15;0.30;;;10.40;99.90;;;;;;4969140;28;20053;-68
2023/04/13 10:31:50;;;;;;;1.27;0.75;;;10.40;99.90;;;;;;4973001;28;20117;-67
2023/04/13 10:34:37;;;;;;;3.13;0.40;;;10.50;99.90;;;;;;4969227;28;20057;-67
2023/04/13 10:37:05;;;;;;;0.80;0.80;;;10.50;99.90;;;;;;4956110;28;20038;-68
2023/04/13 10:39:33;;;;;;;2.10;0.47;;;10.30;99.90;;;;;;4969123;28;20058;-67
2023/04/13 10:42:07;;;;;;;1.60;0.82;;;10.40;99.90;;;;;;4972779;28;20383;-68
2023/04/13 10:44:44;;;;;;;4.57;0.55;;;10.40;99.90;;;;;;4969547;28;20031;-67
2023/04/13 10:47:14;;;;;;;1.08;0.38;;;10.40;99.90;;;;;;4965055;28;20038;-66
2023/04/13 10:49:42;;;;;;;0.47;0.30;;;10.40;99.90;;;;;;4951892;28;20106;-65
2023/04/13 10:52:11;;;;;;;2.83;0.80;;;10.30;99.90;;;;;;4975833;28;20041;-68
2023/04/13 10:54:39;;;;;;;5.75;1.95;;;10.40;99.90;;;;;;4979539;28;20042;-67
2023/04/13 10:57:07;;;;;;;5.32;1.20;;;10.30;99.90;;;;;;4971155;28;20065;-68
2023/04/13 10:59:51;;;;;;;1.38;0.32;;;10.40;99.90;;;;;;4968755;28;20434;-69
2023/04/13 11:02:17;;;;;;;1.08;0.65;;;10.40;99.90;;;;;;4965875;28;20027;-68
2023/04/13 11:04:45;;;;;;;0.40;0.30;;;10.30;99.90;;;;;;4970111;28;20039;-68
2023/04/13 11:07:20;;;;;;;9.07;0.50;;;10.40;99.90;;;;;;4978232;28;20038;-73
2023/04/13 11:10:08;;;;;;;0.77;0.43;;;10.60;99.90;;;;;;4977716;28;20034;-69
2023/04/13 11:12:32;;;;;;;0.80;0.43;;;10.60;99.90;;;;;;4966131;28;20047;-70
2023/04/13 11:14:58;;;;;;;3.70;0.45;;;10.40;99.90;;;;;;4970226;28;20101;-69
2023/04/13 11:17:24;;;;;;;1.55;0.63;;;10.40;99.90;;;;;;4976106;28;20062;-69
2023/04/13 11:19:52;;;;;;;0.38;0.20;;;10.50;99.90;;;;;;4977843;28;20067;-69
2023/04/13 11:22:22;;;;;;;0.68;0.38;;;10.50;99.90;;;;;;4988447;28;20031;-67
2023/04/13 11:24:50;;;;;;;0.45;0.30;;;10.60;99.90;;;;;;4980101;28;20047;-67
2023/04/13 11:27:23;;;;;;;5.47;0.77;;;10.50;99.90;;;;;;4971069;28;20101;-68
2023/04/13 11:30:08;;;;;;;2.08;0.75;;;10.60;99.90;;;;;;4969868;28;20031;-67
2023/04/13 11:32:36;;;;;;;0.75;0.50;;;10.90;99.90;;;;;;4982511;28;20196;-67
2023/04/13 11:35:13;;;;;;;0.38;0.28;;;10.90;99.90;;;;;;4973496;28;20030;-68
2023/04/13 11:37:43;;;;;;;0.77;0.32;;;11.00;99.90;;;;;;4974911;28;20118;-68
2023/04/13 11:40:20;;;;;;;3.13;0.52;;;11.30;99.90;;;;;;4977017;28;20130;-68
2023/04/13 11:42:54;;;;;;;2.10;1.35;;;11.20;99.90;;;;;;4971966;28;20027;-68
2023/04/13 11:45:27;;;;;;;2.42;0.80;;;11.20;99.90;;;;;;4964585;28;20101;-69
2023/04/13 11:47:55;;;;;;;1.25;0.55;;;11.20;99.90;;;;;;4984563;28;20023;-68
2023/04/13 11:50:22;;;;;;;1.05;0.30;;;11.30;99.90;;;;;;4967793;28;20651;-68
2023/04/13 11:52:55;;;;;;;0.30;0.30;;;11.10;99.90;;;;;;4970245;28;20035;-68
2023/04/13 11:55:21;;;;;;;6.18;0.85;;;11.10;99.90;;;;;;4967717;28;20030;-67
2023/04/13 11:57:48;;;;;;;0.30;0.20;;;11.10;99.90;;;;;;4970233;28;20121;-67
2023/04/13 12:00:17;;;;;;;1.88;0.98;;;11.10;99.90;;;;;;4969190;28;20082;-68
2023/04/13 12:02:45;;;;;;;4.50;0.40;;;11.30;99.90;;;;;;4970452;28;20019;-67
2023/04/13 12:05:26;;;;;;;0.77;0.47;;;11.40;99.90;;;;;;4968157;28;20122;-67
2023/04/13 12:07:53;;;;;;;4.35;0.95;;;11.10;99.90;;;;;;4971658;28;20061;-67
2023/04/13 12:10:23;;;;;;;3.17;0.52;;;11.20;99.90;;;;;;4967394;28;20049;-68
2023/04/13 12:12:57;;;;;;;1.48;0.40;;;11.20;99.90;;;;;;4972667;28;20110;-68
2023/04/13 12:15:31;;;;;;;5.47;0.60;;;11.10;99.90;;;;;;4967385;28;20122;-68
2023/04/13 12:18:00;;;;;;;1.38;0.28;;;11.10;99.90;;;;;;4971560;28;20034;-69
2023/04/13 12:20:45;;;;;;;0.77;0.20;;;11.10;99.90;;;;;;4968834;28;20034;-69
2023/04/13 12:23:18;;;;;;;1.55;0.65;;;11.20;99.90;;;;;;4970028;28;20129;-68
2023/04/13 12:25:55;;;;;;;1.02;0.40;;;11.30;99.90;;;;;;4967447;28;20097;-69
2023/04/13 12:28:21;;;;;;;8.77;1.27;;;11.60;99.90;;;;;;4970080;28;20110;-69
2023/04/13 12:30:47;;;;;;;5.95;1.50;;;11.50;99.90;;;;;;4968570;28;20546;-69
2023/04/13 12:33:12;;;;;;;2.05;0.35;;;11.90;99.90;;;;;;4970226;28;20039;-67
2023/04/13 12:35:38;;;;;;;2.33;0.50;;;12.40;99.90;;;;;;4967421;28;20134;-67
2023/04/13 12:38:05;;;;;;;0.55;0.28;;;13.00;99.90;;;;;;4971066;28;20391;-69
2023/04/13 12:40:31;;;;;;;4.68;0.63;;;13.40;99.90;;;;;;4967128;28;20027;-69
2023/04/13 12:42:57;;;;;;;1.85;0.45;;;13.30;99.90;;;;;;4971016;28;20034;-68
2023/04/13 12:45:23;;;;;;;0.90;0.30;;;13.10;99.90;;;;;;4971968;28;20478;-68
2023/04/13 12:47:48;;;;;;;2.38;0.93;;;13.30;99.90;;;;;;4974962;28;20035;-68
2023/04/13 12:50:14;;;;;;;3.58;0.98;;;13.50;99.90;;;;;;4972258;28;20035;-67
2023/04/13 12:52:42;;;;;;;2.25;1.27;;;13.30;99.90;;;;;;4990164;28;20030;-67
2023/04/13 12:55:08;;;;;;;0.32;0.20;;;13.60;99.90;;;;;;4979021;28;20031;-68
2023/04/13 12:57:34;;;;;;;0.43;0.30;;;14.60;99.90;;;;;;4974692;28;20043;-68
2023/04/13 13:00:00;;;;;;;2.47;0.75;;;14.70;99.90;;;;;;4972549;28;20101;-68
2023/04/13 13:02:29;;;;;;;1.88;0.77;;;14.00;99.90;;;;;;4974151;28;20026;-68